Data for 02/04/2005

Time Sea-Level Adjusted Pressure Absolute Pressure Temperature Relative Humidity Dew Point   
(mb) (inHg) (mb) (inHg) (C) (F) (%) (C) (F)
00:05 1021 30.15 850 25.1 5 41 35 -9.2 15.4
00:10 1021 30.15 850 25.1 5.2 41.3 34 -9.4 15.1
00:15 1021 30.15 850 25.1 5.3 41.6 34 -9.4 15
00:20 1021 30.15 850 25.1 5.6 42 33 -9.6 14.8
00:25 1021 30.15 850 25.1 5.7 42.2 33 -9.5 14.8
00:30 1021 30.15 850 25.1 5.6 42 34 -9.1 15.7
00:35 1021 30.15 850 25.1 5.2 41.4 35 -9.1 15.7
00:40 1021 30.15 850 25.1 5.5 41.9 33 -9.5 14.9
00:45 1021 30.15 850 25.1 6.1 42.9 33 -9.1 15.7
00:50 1021 30.15 850 25.1 6.1 43 33 -9.2 15.5
00:55 1021 30.15 850 25.1 6.2 43.1 33 -9.1 15.7
01:00 1021 30.15 850 25.1 5.8 42.4 34 -8.8 16.2
01:05 1021 30.15 850 25.1 5.1 41.2 37 -8.3 17
01:10 1021 30.15 850 25.1 4.8 40.6 37 -8.8 16.2
01:15 1021 30.15 850 25.1 5.1 41.2 35 -9.3 15.3
01:20 1021 30.15 850 25.1 5.5 41.8 33 -9.6 14.6
01:25 1020 30.12 850 25.1 5.7 42.3 31 -10.1 13.8
01:30 1020 30.12 850 25.1 5.6 42.1 33 -9.5 14.9
01:35 1020 30.12 850 25.1 6.1 43 30 -10.2 13.7
01:40 1020 30.12 850 25.1 6.6 43.9 31 -9.5 14.9
01:45 1020 30.12 849 25.07 6.4 43.5 31 -9.4 15
01:50 1020 30.12 849 25.07 6.1 43 32 -9.3 15.2
01:55 1020 30.12 849 25.07 5.8 42.4 33 -9.2 15.5
02:00 1020 30.12 849 25.07 5.5 41.9 34 -9.2 15.5
02:05 1020 30.12 849 25.07 5.1 41.1 36 -9 15.8
02:10 1020 30.12 849 25.07 4.8 40.7 35 -9.4 15
02:15 1020 30.12 849 25.07 5.1 41.2 34 -9.4 15
02:20 1020 30.12 849 25.07 5.4 41.7 34 -9.4 15.1
02:25 1020 30.12 849 25.07 5.6 42.1 33 -9.3 15.2
02:30 1020 30.12 849 25.07 5.3 41.5 34 -9.3 15.2
02:35 1020 30.12 849 25.07 5.2 41.3 34 -9.6 14.8
02:40 1020 30.12 849 25.07 5.1 41.2 34 -9.3 15.2
02:45 1020 30.12 849 25.07 5.3 41.6 33 -9.7 14.6
02:50 1020 30.12 849 25.07 5.6 42 32 -9.7 14.6
02:55 1020 30.12 849 25.07 5.9 42.7 32 -9.7 14.6
03:00 1020 30.12 849 25.07 6.2 43.1 32 -9.5 15
03:05 1020 30.12 849 25.07 6.5 43.7 31 -9.6 14.7
03:10 1020 30.12 849 25.07 6.5 43.7 31 -9.5 14.9
03:15 1020 30.12 849 25.07 6.2 43.1 32 -9.2 15.5
03:20 1019 30.09 849 25.07 5.8 42.4 34 -9.1 15.7
03:25 1019 30.09 849 25.07 5.7 42.2 33 -9.2 15.4
03:30 1019 30.09 848 25.04 5.8 42.5 34 -9 15.7
03:35 1019 30.09 848 25.04 5.7 42.3 33 -9.2 15.5
03:40 1019 30.09 848 25.04 5.6 42.1 34 -9.1 15.6
03:45 1019 30.09 848 25.04 5.6 42.1 34 -9 15.8
03:50 1019 30.09 848 25.04 5.5 41.8 34 -9.2 15.5
03:55 1019 30.09 848 25.04 5.7 42.2 34 -9 15.8
04:00 1019 30.09 848 25.04 5.6 42.1 34 -9.1 15.7
04:05 1019 30.09 848 25.04 5.5 41.9 35 -8.9 15.9
04:10 1019 30.09 848 25.04 5.4 41.7 35 -8.8 16.2
04:15 1019 30.09 848 25.04 5.2 41.3 36 -8.6 16.6
04:20 1019 30.09 848 25.04 5.2 41.3 35 -8.9 15.9
04:25 1019 30.09 848 25.04 5.3 41.5 35 -8.8 16.1
04:30 1019 30.09 848 25.04 5.5 41.8 34 -9.3 15.3
04:35 1019 30.09 848 25.04 6 42.8 32 -9.4 15.1
04:40 1019 30.09 848 25.04 6.5 43.7 31 -9.5 14.9
04:45 1019 30.09 848 25.04 6.7 44.1 31 -9.2 15.4
04:50 1019 30.09 848 25.04 6.4 43.4 32 -9.1 15.6
04:55 1019 30.09 848 25.04 6 42.9 33 -9.1 15.6
05:00 1018 30.06 848 25.04 5.9 42.6 33 -9.1 15.5
05:05 1018 30.06 848 25.04 5.6 42.1 34 -8.9 16
05:10 1018 30.06 848 25.04 5.1 41.2 36 -8.9 15.9
05:15 1018 30.06 848 25.04 5 41.1 36 -9 15.8
05:20 1018 30.06 848 25.04 4.9 40.9 36 -9 15.8
05:25 1018 30.06 847 25.01 5.1 41.2 35 -9.3 15.3
05:30 1018 30.06 847 25.01 5.4 41.8 34 -9.3 15.3
05:35 1018 30.06 847 25.01 5.5 41.9 34 -9.3 15.2
05:40 1018 30.06 847 25.01 5.7 42.2 33 -9.4 15.1
05:45 1018 30.06 847 25.01 5.8 42.4 32 -9.5 14.9
05:50 1018 30.06 847 25.01 5.7 42.3 33 -9.4 15.1
05:55 1018 30.06 847 25.01 5.6 42.1 34 -9.2 15.5
06:00 1018 30.06 847 25.01 5.3 41.6 34 -9.2 15.5
06:05 1018 30.06 847 25.01 5.2 41.4 34 -9.3 15.3
06:10 1018 30.06 847 25.01 5.1 41.1 35 -9.1 15.7
06:15 1018 30.06 847 25.01 4.8 40.6 35 -9.4 15.1
06:20 1018 30.06 847 25.01 4.9 40.7 35 -9.4 15.1
06:25 1018 30.06 847 25.01 5.2 41.4 34 -9.5 14.9
06:30 1018 30.06 847 25.01 5.7 42.2 33 -9.6 14.8
06:35 1018 30.06 847 25.01 5.6 42 33 -9.5 14.9
06:40 1018 30.06 847 25.01 5.3 41.5 35 -9.1 15.7
06:45 1018 30.06 847 25.01 4.8 40.6 35 -9.3 15.3
06:50 1018 30.06 847 25.01 5.1 41.2 34 -9.6 14.7
06:55 1017 30.03 847 25.01 5.4 41.8 33 -9.5 14.8
07:00 1017 30.03 847 25.01 5.2 41.3 35 -8.9 15.9
07:05 1017 30.03 847 25.01 5.1 41.2 33 -9.7 14.5
07:10 1017 30.03 847 25.01 5.5 41.9 32 -9.8 14.3
07:15 1017 30.03 847 25.01 5.8 42.5 31 -9.9 14.2
07:20 1017 30.03 847 25.01 6 42.9 32 -9.6 14.7
07:25 1017 30.03 847 25.01 5.9 42.6 31 -9.8 14.3
07:30 1017 30.03 846 24.98 6.1 43 30 -10.2 13.7
07:35 1017 30.03 846 24.98 6.4 43.5 29 -10.2 13.7
07:40 1017 30.03 846 24.98 6.5 43.6 32 -8.9 15.9
07:45 1017 30.03 846 24.98 5.7 42.2 32 -9.6 14.7
07:50 1017 30.03 846 24.98 5.7 42.3 32 -9.7 14.5
07:55 1017 30.03 846 24.98 5.8 42.5 33 -9.2 15.4
08:00 1017 30.03 846 24.98 5.5 41.9 35 -8.9 15.9
08:05 1017 30.03 846 24.98 5.3 41.6 35 -8.9 16
08:10 1017 30.03 846 24.98 5.2 41.4 35 -8.9 16.1
08:15 1017 30.03 846 24.98 5.1 41.2 36 -8.8 16.1
08:20 1017 30.03 846 24.98 5.4 41.6 35 -8.9 16
08:25 1017 30.03 846 24.98 5.5 41.8 35 -8.9 16
08:30 1017 30.03 846 24.98 5.4 41.7 35 -9 15.7
08:35 1017 30.03 846 24.98 5.5 41.9 35 -8.9 15.9
08:40 1017 30.03 846 24.98 5.4 41.7 35 -8.7 16.3
08:45 1017 30.03 846 24.98 5.2 41.3 35 -9.2 15.4
08:50 1017 30.03 846 24.98 5 41 35 -9.2 15.5
08:55 1017 30.03 846 24.98 5.6 42 33 -9.3 15.2
09:00 1017 30.03 846 24.98 5.6 42.1 33 -9.5 15
09:05 1017 30.03 846 24.98 5.5 42 33 -9.3 15.2
09:10 1017 30.03 846 24.98 5.5 41.9 34 -9.3 15.2
09:15 1016 30 846 24.98 5.7 42.3 33 -9.5 15
09:20 1016 30 846 24.98 5.9 42.7 32 -9.6 14.6
09:25 1016 30 846 24.98 6.3 43.4 31 -9.5 14.9
09:30 1016 30 845 24.95 6.5 43.7 31 -9.4 15.1
09:35 1016 30 845 24.95 6.7 44 30 -9.6 14.7
09:40 1016 30 845 24.95 7.1 44.8 31 -9.1 15.6
09:45 1016 30 845 24.95 7 44.7 30 -9.5 14.8
09:50 1016 30 845 24.95 6.9 44.4 32 -8.7 16.4
09:55 1016 30 845 24.95 6.8 44.2 30 -9.6 14.8
10:00 1016 30 845 24.95 7.2 45 31 -9 15.8
10:05 1016 30 845 24.95 7.9 46.1 30 -8.6 16.6
10:10 1016 30 845 24.95 8.7 47.7 29 -8.2 17.2
10:15 1016 30 845 24.95 9.5 49.2 27 -8.3 17
10:20 1016 30 845 24.95 9.7 49.4 27 -8.6 16.6
10:25 1016 30 845 24.95 9.7 49.5 27 -8.3 17
10:30 1016 30 845 24.95 9.9 49.8 27 -8.4 16.8
10:35 1015 29.97 845 24.95 10.3 50.6 24 -9.1 15.6
10:40 1016 30 845 24.95 10.7 51.2 24 -9.2 15.5
10:45 1015 29.97 845 24.95 10.8 51.4 23 -9.4 15.1
10:50 1015 29.97 844 24.92 11.1 52 23 -9.4 15.1
10:55 1015 29.97 844 24.92 11.6 52.8 22 -9.3 15.3
11:00 1015 29.97 844 24.92 11.6 52.8 22 -9.3 15.2
11:05 1015 29.97 844 24.92 11.5 52.6 23 -9 15.7
11:10 1015 29.97 844 24.92 11.4 52.5 22 -9.3 15.3
11:15 1015 29.97 844 24.92 11.3 52.3 23 -9.2 15.4
11:20 1015 29.97 844 24.92 11.6 52.9 22 -9.2 15.5
11:25 1015 29.97 844 24.92 12.2 53.9 22 -8.8 16.1
11:30 1015 29.97 844 24.92 13.3 56 21 -8.3 17.1
11:35 1015 29.97 844 24.92 13.6 56.5 21 -8 17.5
11:40 1014 29.94 844 24.92 13.4 56.2 21 -8.6 16.4
11:45 1014 29.94 844 24.92 13.7 56.7 19 -9.3 15.3
11:50 1014 29.94 844 24.92 14.5 58.1 18 -9.3 15.3
11:55 1014 29.94 843 24.89 14.5 58 18 -9.7 14.5
12:00 1014 29.94 843 24.89 15.4 59.7 15 -11 12.2
12:05 1014 29.94 843 24.89 16.3 61.3 15 -10.3 13.5
12:10 1014 29.94 843 24.89 16.5 61.7 13 -11.7 10.9
12:15 1014 29.94 843 24.89 16.6 62 14 -11.2 11.8
12:20 1013 29.91 843 24.89 16.4 61.5 14 -11.3 11.7
12:25 1013 29.91 843 24.89 16.3 61.4 13 -12.1 10.2
12:30 1013 29.91 843 24.89 16.5 61.6 13 -12.1 10.2
12:35 1013 29.91 842 24.86 16.2 61.2 13 -12.7 9.2
12:40 1013 29.91 842 24.86 16 60.7 13 -12 10.3
12:45 1013 29.91 842 24.86 15.7 60.3 14 -12 10.4
12:50 1013 29.91 842 24.86 15.4 59.6 16 -10.7 12.8
12:55 1013 29.91 842 24.86 15.3 59.5 19 -8.3 17
13:00 1013 29.91 842 24.86 15.6 60 19 -8.2 17.2
13:05 1013 29.91 842 24.86 16 60.9 18 -8 17.7
13:10 1013 29.91 842 24.86 16.3 61.3 17 -8.6 16.6
13:15 1013 29.91 842 24.86 16.6 61.9 14 -10.9 12.4
13:20 1012 29.88 842 24.86 16.3 61.4 18 -8.3 17
13:25 1012 29.88 842 24.86 15.8 60.5 19 -7.8 17.9
13:30 1012 29.88 841 24.83 15.6 60.1 19 -8 17.6
13:35 1012 29.88 841 24.83 15.7 60.2 17 -8.9 16
13:40 1012 29.88 841 24.83 15.7 60.3 18 -8.2 17.3
13:45 1012 29.88 841 24.83 15.7 60.2 17 -9.1 15.7
13:50 1012 29.88 841 24.83 16.4 61.4 16 -9.5 15
13:55 1012 29.88 841 24.83 16 60.8 16 -10 14
14:00 1012 29.88 841 24.83 16.7 62.1 15 -10.1 13.9
14:05 1012 29.88 841 24.83 17.6 63.7 14 -10.2 13.6
14:10 1012 29.88 841 24.83 18.3 64.9 14 -9.7 14.5
14:15 1012 29.88 841 24.83 17.7 63.8 13 -11.5 11.4
14:20 1012 29.88 841 24.83 16.9 62.3 12 -12.3 9.8
14:25 1012 29.88 841 24.83 16.2 61.1 13 -12.6 9.3
14:30 1011 29.85 841 24.83 15.9 60.6 12 -13.1 8.4
14:35 1011 29.85 841 24.83 16.1 61 13 -12.3 9.9
14:40 1011 29.85 841 24.83 16.2 61.2 12 -12.9 8.8
14:45 1011 29.85 841 24.83 16.5 61.7 12 -12.5 9.5
14:50 1011 29.85 841 24.83 16.5 61.8 13 -12.1 10.3
14:55 1011 29.85 841 24.83 15.8 60.4 13 -12.2 10
15:00 1011 29.85 841 24.83 15.3 59.6 14 -12.5 9.6
15:05 1011 29.85 841 24.83 15.2 59.3 14 -12.4 9.7
15:10 1011 29.85 841 24.83 15.1 59.2 14 -12.5 9.4
15:15 1011 29.85 841 24.83 14.9 58.8 14 -12 10.5
15:20 1011 29.85 841 24.83 14.9 58.7 14 -12.1 10.3
15:25 1011 29.85 841 24.83 14.6 58.3 14 -12.4 9.8
15:30 1011 29.85 840 24.81 14.3 57.8 15 -12.2 10.1
15:35 1011 29.85 840 24.81 14.1 57.4 15 -12.2 10.1
15:40 1011 29.85 840 24.81 13.9 57.1 15 -12.4 9.7
15:45 1011 29.85 840 24.81 13.8 56.8 15 -12.3 9.8
15:50 1011 29.85 840 24.81 13.6 56.4 16 -11.9 10.7
15:55 1011 29.85 840 24.81 13.3 56 16 -12.3 9.8
16:00 1011 29.85 840 24.81 13.2 55.7 16 -12.5 9.6
16:05 1011 29.85 840 24.81 13 55.4 16 -12.4 9.7
16:10 1011 29.85 840 24.81 12.9 55.2 16 -12.4 9.6
16:15 1011 29.85 840 24.81 12.8 55 17 -11.5 11.3
16:20 1011 29.85 840 24.81 12.6 54.7 17 -11.6 11.1
16:25 1011 29.85 840 24.81 12.5 54.4 17 -11.7 11
16:30 1011 29.85 840 24.81 12.4 54.3 18 -11.1 12
16:35 1011 29.85 840 24.81 12.1 53.7 19 -11 12.2
16:40 1011 29.85 840 24.81 11.9 53.3 19 -11 12.2
16:45 1011 29.85 840 24.81 11.8 53.2 19 -10.9 12.5
16:50 1011 29.85 840 24.81 11.5 52.7 20 -10.5 13
16:55 1011 29.85 840 24.81 11.3 52.4 20 -10.9 12.4
17:00 1011 29.85 840 24.81 11 51.8 23 -9.6 14.8
17:05 1011 29.85 840 24.81 10.3 50.6 24 -9.5 14.9
17:10 1011 29.85 840 24.81 10.2 50.4 23 -10.2 13.6
17:15 1011 29.85 840 24.81 10.1 50.2 23 -10.1 13.8
17:20 1010 29.83 840 24.81 10.1 50.1 23 -10.1 13.8
17:25 1010 29.83 840 24.81 10.2 50.4 22 -10.7 12.7
17:30 1010 29.83 840 24.81 10.2 50.3 22 -10.4 13.3
17:35 1010 29.83 840 24.81 10.1 50.1 21 -11 12.2
17:40 1010 29.83 839 24.78 10.1 50.2 22 -10.8 12.5
17:45 1010 29.83 839 24.78 10 49.9 22 -10.9 12.4
17:50 1010 29.83 839 24.78 9.9 49.8 22 -11 12.2
17:55 1010 29.83 839 24.78 9.9 49.9 22 -11 12.2
18:00 1010 29.83 839 24.78 9.8 49.7 21 -11.4 11.5
18:05 1010 29.83 839 24.78 10.2 50.3 20 -11.6 11.1
18:10 1010 29.83 839 24.78 10.2 50.4 21 -10.9 12.4
18:15 1010 29.83 839 24.78 10 50.1 21 -11.1 12.1
18:20 1010 29.83 839 24.78 10 49.9 21 -11.3 11.6
18:25 1010 29.83 839 24.78 9.9 49.8 21 -11.4 11.5
18:30 1010 29.83 839 24.78 9.9 49.9 22 -11 12.2
18:35 1010 29.83 839 24.78 9.8 49.6 22 -10.8 12.5
18:40 1010 29.83 839 24.78 9.7 49.4 21 -11.4 11.5
18:45 1009 29.8 839 24.78 9.7 49.5 22 -11.3 11.7
18:50 1009 29.8 839 24.78 9.6 49.3 21 -12 10.4
18:55 1009 29.8 839 24.78 9.9 49.9 21 -11.4 11.6
19:00 1009 29.8 839 24.78 9.7 49.4 22 -11.2 11.8
19:05 1009 29.8 838 24.75 9.6 49.2 22 -11.2 11.8
19:10 1009 29.8 838 24.75 9.4 49 23 -10.5 13.1
19:15 1009 29.8 838 24.75 9.3 48.7 21 -11.7 10.9
19:20 1009 29.8 838 24.75 9.4 49 22 -11.1 12.1
19:25 1009 29.8 838 24.75 9.6 49.3 22 -11.1 12.1
19:30 1009 29.8 838 24.75 9.6 49.3 22 -11.1 12
19:35 1009 29.8 838 24.75 9.6 49.3 22 -10.9 12.4
19:40 1009 29.8 838 24.75 9.6 49.3 22 -10.9 12.3
19:45 1009 29.8 838 24.75 9.6 49.2 22 -11 12.3
19:50 1009 29.8 838 24.75 9.6 49.2 24 -10.3 13.5
19:55 1009 29.8 838 24.75 9.2 48.5 24 -10.2 13.6
20:00 1009 29.8 838 24.75 9.1 48.3 24 -10.7 12.7
20:05 1009 29.8 838 24.75 9.3 48.7 23 -10.6 13
20:10 1009 29.8 838 24.75 9.4 49 23 -10.6 12.9
20:15 1009 29.8 838 24.75 9.5 49 23 -10.4 13.2
20:20 1009 29.8 838 24.75 9.5 49 23 -10.4 13.2
20:25 1009 29.8 838 24.75 9.3 48.7 25 -10 14.1
20:30 1009 29.8 838 24.75 9.1 48.5 24 -10.4 13.3
20:35 1009 29.8 838 24.75 9.3 48.8 25 -9.9 14.2
20:40 1009 29.8 838 24.75 9.1 48.5 25 -9.8 14.4
20:45 1009 29.8 838 24.75 9 48.1 26 -9.4 15
20:50 1009 29.8 838 24.75 8.7 47.7 27 -9.4 15.1
20:55 1009 29.8 838 24.75 8.6 47.5 27 -9.4 15.1
21:00 1009 29.8 838 24.75 8.5 47.3 28 -9.1 15.6
21:05 1009 29.8 838 24.75 8.3 47 28 -9 15.8
21:10 1009 29.8 838 24.75 8.1 46.5 29 -8.8 16.2
21:15 1009 29.8 838 24.75 8 46.3 29 -8.8 16.1
21:20 1009 29.8 838 24.75 7.8 46.1 30 -8.8 16.2
21:25 1009 29.8 838 24.75 7 44.6 31 -8.8 16.1
21:30 1009 29.8 838 24.75 6.8 44.2 32 -9 15.9
21:35 1009 29.8 838 24.75 6.8 44.2 31 -9.2 15.5
21:40 1009 29.8 838 24.75 6.6 43.9 31 -9.3 15.3
21:45 1009 29.8 838 24.75 6.6 43.9 31 -9.2 15.5
21:50 1009 29.8 838 24.75 6.7 44 31 -9.2 15.5
21:55 1009 29.8 838 24.75 6.8 44.2 32 -8.9 16
22:00 1009 29.8 838 24.75 6.5 43.8 32 -9 15.8
22:05 1009 29.8 838 24.75 6.4 43.6 33 -8.6 16.6
22:10 1009 29.8 838 24.75 6.6 43.8 32 -9.1 15.6
22:15 1009 29.8 838 24.75 6.6 43.9 31 -9.2 15.5
22:20 1009 29.8 838 24.75 6.6 44 31 -9.2 15.5
22:25 1009 29.8 838 24.75 6.4 43.5 32 -9.3 15.2
22:30 1009 29.8 838 24.75 6.8 44.2 31 -9.1 15.6
22:35 1009 29.8 838 24.75 6.6 43.8 32 -9.2 15.5
22:40 1009 29.8 838 24.75 6.7 44 31 -9.3 15.2
22:45 1009 29.8 838 24.75 7 44.6 31 -8.9 15.9
22:50 1009 29.8 838 24.75 6.7 44 33 -8.3 17
22:55 1009 29.8 838 24.75 6.5 43.6 33 -8.8 16.1
23:00 1009 29.8 838 24.75 7.1 44.8 30 -9.1 15.6
23:05 1009 29.8 838 24.75 7.4 45.4 31 -8.8 16.2
23:10 1009 29.8 838 24.75 7.4 45.3 30 -9 15.9
23:15 1009 29.8 838 24.75 7.2 44.9 32 -8.4 16.9
23:20 1009 29.8 838 24.75 7 44.7 32 -8.4 16.8
23:25 1009 29.8 838 24.75 6.9 44.5 31 -8.9 15.9
23:30 1009 29.8 838 24.75 7.2 44.9 31 -8.9 16
23:35 1009 29.8 838 24.75 7.4 45.3 31 -8.7 16.4
23:40 1009 29.8 838 24.75 7.3 45.2 31 -8.6 16.6
23:45 1009 29.8 838 24.75 7.2 44.9 32 -8.5 16.6
23:50 1009 29.8 838 24.75 7.1 44.7 31 -8.9 15.9
23:55 1009 29.8 838 24.75 7.4 45.2 31 -8.9 16
24:00 1009 29.8 838 24.75 7.2 45 31 -8.8 16.1